메인 페이지
METAR-TAF:

METAR-TAF

공항 :

청두 솽류 국제공항

청두, 중국

위도: 30-40N, 경도: 104-01E, 고도: 508m

현재 날씨관측

예보는 44분 전, 15:00시(UTC)에 발표되었습니다.
무풍
온도 28°C
습도 79%
기압 1005 hPa
시정 10km 이상
1500m 미만 상공 구름 및 적란운 없음

METAR: ZUUU 191500Z 00000MPS CAVOK 28/24 Q1005 NOSIG

시각: 23:44 (15:44 UTC)

예보

예보는 7 시간 35분 전, 08:09시(UTC)에 발표되었습니다.
예보 대상 시간: 19일 12시부터 20일 12시까지 (UTC)
남남서6kt
시정: 6000m
고도 4000ft 상공 구름 보통
일시적
20일 07시부터 20일 11시까지 (UTC)
고도 3000ft 상공 구름 조금, 적란운.
고도 4000ft 상공 구름 보통

TAF: ZUUU 190809Z 1912/2012 20003MPS 6000 SCT040 TX33/2007Z TN24/1922Z TEMPO 2007/2011 FEW030CB SCT040

4,000개 이상의 공항 관측 자료 및 예보 (METAR 및 TAF 보고).

지도상에서 검색 가능한 기상관측소가 노란 점과 빨간 점으로 표시되어 있습니다.

기상관측소 명을 보려면 표시 위로 마우스를 이동하세요.

날씨 관측과 예보를 보려면 클릭하세요.

지도 변경 : 확대하려면 엑스 표시가 있는 녹색 버튼, 축소하려면 빼기 표시가 있는 녹색 버튼, 다음 페이지의 지도를 보려면 녹색 화살표를 클릭하세요.


METAR-TAF: